sensor_id;sensor_type;location;lat;lon;timestamp;pressure;altitude;pressure_sealevel;temperature;humidity
29045;BME280;16133;49.486;12.176;2023-02-20T00:01:45;97975.50;;;5.72;100.00
29045;BME280;16133;49.486;12.176;2023-02-20T00:04:11;97978.03;;;5.73;100.00
29045;BME280;16133;49.486;12.176;2023-02-20T00:06:36;97983.13;;;5.75;100.00
29045;BME280;16133;49.486;12.176;2023-02-20T00:09:01;97984.25;;;5.72;100.00
29045;BME280;16133;49.486;12.176;2023-02-20T00:11:26;97981.34;;;5.75;100.00
29045;BME280;16133;49.486;12.176;2023-02-20T00:13:52;97979.53;;;5.76;100.00
29045;BME280;16133;49.486;12.176;2023-02-20T00:16:17;97969.97;;;5.75;100.00
29045;BME280;16133;49.486;12.176;2023-02-20T00:18:43;97973.44;;;5.75;100.00
29045;BME280;16133;49.486;12.176;2023-02-20T00:21:09;97972.19;;;5.70;100.00
29045;BME280;16133;49.486;12.176;2023-02-20T00:23:34;97966.53;;;5.74;100.00
29045;BME280;16133;49.486;12.176;2023-02-20T00:26:00;97974.97;;;5.68;100.00
29045;BME280;16133;49.486;12.176;2023-02-20T00:28:25;97977.31;;;5.71;100.00
29045;BME280;16133;49.486;12.176;2023-02-20T00:30:51;97982.84;;;5.59;100.00
29045;BME280;16133;49.486;12.176;2023-02-20T00:33:16;97988.34;;;5.56;100.00
29045;BME280;16133;49.486;12.176;2023-02-20T00:35:41;97998.03;;;5.46;100.00
29045;BME280;16133;49.486;12.176;2023-02-20T00:38:07;98003.13;;;5.38;100.00
29045;BME280;16133;49.486;12.176;2023-02-20T00:40:32;98002.16;;;5.39;100.00
29045;BME280;16133;49.486;12.176;2023-02-20T00:42:57;98011.84;;;5.38;100.00
29045;BME280;16133;49.486;12.176;2023-02-20T00:45:23;98007.53;;;5.37;100.00
29045;BME280;16133;49.486;12.176;2023-02-20T00:47:48;98008.78;;;5.33;100.00
29045;BME280;16133;49.486;12.176;2023-02-20T00:50:15;98006.41;;;5.30;100.00
29045;BME280;16133;49.486;12.176;2023-02-20T00:52:41;98002.94;;;5.29;100.00
29045;BME280;16133;49.486;12.176;2023-02-20T00:55:06;98000.06;;;5.33;100.00
29045;BME280;16133;49.486;12.176;2023-02-20T00:57:31;97998.53;;;5.30;100.00
29045;BME280;16133;49.486;12.176;2023-02-20T00:59:57;97991.91;;;5.36;100.00
29045;BME280;16133;49.486;12.176;2023-02-20T01:02:22;97995.22;;;5.38;100.00
29045;BME280;16133;49.486;12.176;2023-02-20T01:04:48;97990.69;;;5.40;100.00
29045;BME280;16133;49.486;12.176;2023-02-20T01:07:13;98000.94;;;5.43;100.00
29045;BME280;16133;49.486;12.176;2023-02-20T01:09:38;97984.84;;;5.36;100.00
29045;BME280;16133;49.486;12.176;2023-02-20T01:12:04;97979.72;;;5.35;100.00
29045;BME280;16133;49.486;12.176;2023-02-20T01:14:30;97993.31;;;5.40;100.00
29045;BME280;16133;49.486;12.176;2023-02-20T01:16:55;97983.06;;;5.46;100.00
29045;BME280;16133;49.486;12.176;2023-02-20T01:19:22;97986.81;;;5.44;100.00
29045;BME280;16133;49.486;12.176;2023-02-20T01:21:48;97982.78;;;5.40;100.00
29045;BME280;16133;49.486;12.176;2023-02-20T01:24:14;97996.19;;;5.37;100.00
29045;BME280;16133;49.486;12.176;2023-02-20T01:26:43;98001.72;;;5.34;100.00
29045;BME280;16133;49.486;12.176;2023-02-20T01:29:09;98002.44;;;5.36;100.00
29045;BME280;16133;49.486;12.176;2023-02-20T01:31:35;97983.84;;;5.27;100.00
29045;BME280;16133;49.486;12.176;2023-02-20T01:34:01;97995.09;;;5.39;100.00
29045;BME280;16133;49.486;12.176;2023-02-20T01:36:26;97987.22;;;5.39;100.00
29045;BME280;16133;49.486;12.176;2023-02-20T01:38:52;97988.72;;;5.42;100.00
29045;BME280;16133;49.486;12.176;2023-02-20T01:41:18;97978.91;;;5.44;100.00
29045;BME280;16133;49.486;12.176;2023-02-20T01:43:44;97975.72;;;5.40;100.00
29045;BME280;16133;49.486;12.176;2023-02-20T01:49:12;97980.09;;;5.30;100.00
29045;BME280;16133;49.486;12.176;2023-02-20T01:51:44;97983.28;;;5.24;100.00
29045;BME280;16133;49.486;12.176;2023-02-20T01:54:14;97990.81;;;5.38;100.00
29045;BME280;16133;49.486;12.176;2023-02-20T01:56:41;97983.47;;;5.42;100.00
29045;BME280;16133;49.486;12.176;2023-02-20T01:59:09;97999.13;;;5.43;100.00
29045;BME280;16133;49.486;12.176;2023-02-20T02:01:36;97994.09;;;5.30;100.00
29045;BME280;16133;49.486;12.176;2023-02-20T02:04:03;97989.38;;;5.24;100.00
29045;BME280;16133;49.486;12.176;2023-02-20T02:06:31;97998.22;;;5.23;100.00
29045;BME280;16133;49.486;12.176;2023-02-20T02:09:02;97989.88;;;5.18;100.00
29045;BME280;16133;49.486;12.176;2023-02-20T02:11:31;97998.75;;;5.17;100.00
29045;BME280;16133;49.486;12.176;2023-02-20T02:13:56;97989.88;;;5.18;100.00
29045;BME280;16133;49.486;12.176;2023-02-20T02:39:22;97977.66;;;4.77;100.00
29045;BME280;16133;49.486;12.176;2023-02-20T02:47:01;97979.13;;;4.70;100.00
29045;BME280;16133;49.486;12.176;2023-02-20T02:49:58;97987.66;;;4.63;100.00
29045;BME280;16133;49.486;12.176;2023-02-20T02:52:27;97982.41;;;4.63;100.00
29045;BME280;16133;49.486;12.176;2023-02-20T02:55:12;97976.63;;;4.69;100.00
29045;BME280;16133;49.486;12.176;2023-02-20T02:57:39;97961.38;;;4.63;100.00
29045;BME280;16133;49.486;12.176;2023-02-20T03:00:20;97969.34;;;4.52;100.00
29045;BME280;16133;49.486;12.176;2023-02-20T03:03:09;97979.19;;;4.39;100.00
29045;BME280;16133;49.486;12.176;2023-02-20T03:11:04;98006.03;;;4.10;100.00
29045;BME280;16133;49.486;12.176;2023-02-20T03:13:53;97991.75;;;4.03;100.00
29045;BME280;16133;49.486;12.176;2023-02-20T03:16:41;97995.19;;;4.04;100.00
29045;BME280;16133;49.486;12.176;2023-02-20T03:19:11;97983.63;;;4.06;100.00
29045;BME280;16133;49.486;12.176;2023-02-20T03:21:41;97979.19;;;4.07;100.00
29045;BME280;16133;49.486;12.176;2023-02-20T03:24:09;97974.53;;;4.10;100.00
29045;BME280;16133;49.486;12.176;2023-02-20T03:26:36;97968.41;;;4.21;100.00
29045;BME280;16133;49.486;12.176;2023-02-20T03:29:10;97964.94;;;4.20;100.00
29045;BME280;16133;49.486;12.176;2023-02-20T03:31:49;97964.94;;;4.20;100.00
29045;BME280;16133;49.486;12.176;2023-02-20T03:34:34;97978.41;;;4.27;100.00
29045;BME280;16133;49.486;12.176;2023-02-20T03:37:20;97961.81;;;4.47;100.00
29045;BME280;16133;49.486;12.176;2023-02-20T03:40:08;97954.44;;;4.62;100.00
29045;BME280;16133;49.486;12.176;2023-02-20T03:42:59;97937.06;;;4.70;100.00
29045;BME280;16133;49.486;12.176;2023-02-20T03:45:46;97930.03;;;4.71;100.00
29045;BME280;16133;49.486;12.176;2023-02-20T03:48:37;97929.31;;;4.69;100.00
29045;BME280;16133;49.486;12.176;2023-02-20T03:51:05;97926.94;;;4.66;100.00
29045;BME280;16133;49.486;12.176;2023-02-20T03:53:32;97930.13;;;4.69;100.00
29045;BME280;16133;49.486;12.176;2023-02-20T03:56:01;97936.81;;;4.73;100.00
29045;BME280;16133;49.486;12.176;2023-02-20T03:58:28;97930.78;;;4.82;100.00
29045;BME280;16133;49.486;12.176;2023-02-20T04:00:57;97927.59;;;4.89;100.00
29045;BME280;16133;49.486;12.176;2023-02-20T04:03:27;97936.34;;;4.89;100.00
29045;BME280;16133;49.486;12.176;2023-02-20T04:05:54;97928.63;;;4.97;100.00
29045;BME280;16133;49.486;12.176;2023-02-20T04:08:24;97933.50;;;5.02;100.00
29045;BME280;16133;49.486;12.176;2023-02-20T04:10:58;97928.22;;;5.02;100.00
29045;BME280;16133;49.486;12.176;2023-02-20T04:13:26;97925.44;;;5.03;100.00
29045;BME280;16133;49.486;12.176;2023-02-20T04:15:52;97921.59;;;5.07;100.00
29045;BME280;16133;49.486;12.176;2023-02-20T04:18:20;97930.88;;;5.11;100.00
29045;BME280;16133;49.486;12.176;2023-02-20T04:20:48;97931.59;;;5.13;100.00
29045;BME280;16133;49.486;12.176;2023-02-20T04:23:18;97931.44;;;5.15;100.00
29045;BME280;16133;49.486;12.176;2023-02-20T04:26:00;97927.84;;;5.16;100.00
29045;BME280;16133;49.486;12.176;2023-02-20T04:28:27;97928.97;;;5.13;100.00
29045;BME280;16133;49.486;12.176;2023-02-20T04:30:52;97920.38;;;5.11;100.00
29045;BME280;16133;49.486;12.176;2023-02-20T04:33:19;97918.69;;;5.10;100.00
29045;BME280;16133;49.486;12.176;2023-02-20T04:35:45;97918.69;;;5.10;100.00
29045;BME280;16133;49.486;12.176;2023-02-20T04:38:10;97919.53;;;5.11;100.00
29045;BME280;16133;49.486;12.176;2023-02-20T04:40:36;97918.44;;;5.13;100.00
29045;BME280;16133;49.486;12.176;2023-02-20T04:43:02;97924.28;;;5.17;100.00
29045;BME280;16133;49.486;12.176;2023-02-20T04:45:28;97935.63;;;5.17;100.00
29045;BME280;16133;49.486;12.176;2023-02-20T04:47:53;97915.28;;;5.19;100.00
29045;BME280;16133;49.486;12.176;2023-02-20T04:50:23;97922.78;;;5.24;100.00
29045;BME280;16133;49.486;12.176;2023-02-20T04:52:48;97920.97;;;5.24;100.00
29045;BME280;16133;49.486;12.176;2023-02-20T04:55:14;97927.06;;;5.25;100.00
29045;BME280;16133;49.486;12.176;2023-02-20T04:57:39;97922.63;;;5.25;100.00
29045;BME280;16133;49.486;12.176;2023-02-20T05:00:05;97929.00;;;5.23;100.00
29045;BME280;16133;49.486;12.176;2023-02-20T05:02:33;97927.75;;;5.27;100.00
29045;BME280;16133;49.486;12.176;2023-02-20T05:04:58;97932.91;;;5.28;100.00
29045;BME280;16133;49.486;12.176;2023-02-20T05:07:23;97936.22;;;5.30;100.00
29045;BME280;16133;49.486;12.176;2023-02-20T05:09:49;97936.22;;;5.30;100.00
29045;BME280;16133;49.486;12.176;2023-02-20T05:12:14;97932.63;;;5.32;100.00
29045;BME280;16133;49.486;12.176;2023-02-20T05:14:39;97933.28;;;5.24;100.00
29045;BME280;16133;49.486;12.176;2023-02-20T05:17:05;97935.94;;;5.34;100.00
29045;BME280;16133;49.486;12.176;2023-02-20T05:19:30;97935.25;;;5.32;100.00
29045;BME280;16133;49.486;12.176;2023-02-20T05:21:55;97936.78;;;5.34;100.00
29045;BME280;16133;49.486;12.176;2023-02-20T05:24:42;97934.97;;;5.35;100.00
29045;BME280;16133;49.486;12.176;2023-02-20T05:27:07;97934.28;;;5.33;100.00
29045;BME280;16133;49.486;12.176;2023-02-20T05:29:34;97943.16;;;5.32;100.00
29045;BME280;16133;49.486;12.176;2023-02-20T05:31:59;97947.00;;;5.27;100.00
29045;BME280;16133;49.486;12.176;2023-02-20T05:34:24;97947.69;;;5.29;100.00
29045;BME280;16133;49.486;12.176;2023-02-20T05:36:51;97952.84;;;5.31;100.00
29045;BME280;16133;49.486;12.176;2023-02-20T05:39:16;97941.47;;;5.30;100.00
29045;BME280;16133;49.486;12.176;2023-02-20T05:41:42;97945.34;;;5.26;100.00
29045;BME280;16133;49.486;12.176;2023-02-20T05:44:07;97950.59;;;5.26;100.00
29045;BME280;16133;49.486;12.176;2023-02-20T05:46:38;97958.38;;;5.28;100.00
29045;BME280;16133;49.486;12.176;2023-02-20T05:49:05;97957.00;;;5.34;100.00
29045;BME280;16133;49.486;12.176;2023-02-20T05:51:30;97958.38;;;5.38;100.00
29045;BME280;16133;49.486;12.176;2023-02-20T05:53:56;97960.06;;;5.39;100.00
29045;BME280;16133;49.486;12.176;2023-02-20T05:56:21;97968.06;;;5.37;100.00
29045;BME280;16133;49.486;12.176;2023-02-20T05:58:47;97975.13;;;5.37;100.00
29045;BME280;16133;49.486;12.176;2023-02-20T06:01:21;97973.22;;;5.39;100.00
29045;BME280;16133;49.486;12.176;2023-02-20T06:03:46;97976.69;;;5.39;100.00
29045;BME280;16133;49.486;12.176;2023-02-20T06:06:12;97982.06;;;5.38;100.00
29045;BME280;16133;49.486;12.176;2023-02-20T06:08:38;97989.97;;;5.38;100.00
29045;BME280;16133;49.486;12.176;2023-02-20T06:11:04;97995.09;;;5.39;100.00
29045;BME280;16133;49.486;12.176;2023-02-20T06:13:30;98003.56;;;5.43;100.00
29045;BME280;16133;49.486;12.176;2023-02-20T06:15:55;98013.81;;;5.46;100.00
29045;BME280;16133;49.486;12.176;2023-02-20T06:18:20;98019.91;;;5.46;100.00
29045;BME280;16133;49.486;12.176;2023-02-20T06:20:46;98020.50;;;5.50;100.00
29045;BME280;16133;49.486;12.176;2023-02-20T06:23:11;98035.44;;;5.49;100.00
29045;BME280;16133;49.486;12.176;2023-02-20T06:25:36;98031.00;;;5.50;100.00
29045;BME280;16133;49.486;12.176;2023-02-20T06:28:02;98036.72;;;5.55;100.00
29045;BME280;16133;49.486;12.176;2023-02-20T06:30:27;98027.84;;;5.56;100.00
29045;BME280;16133;49.486;12.176;2023-02-20T06:32:52;98011.09;;;5.57;100.00
29045;BME280;16133;49.486;12.176;2023-02-20T06:35:18;98010.81;;;5.60;100.00
29045;BME280;16133;49.486;12.176;2023-02-20T06:37:43;98017.19;;;5.57;100.00
29045;BME280;16133;49.486;12.176;2023-02-20T06:40:09;98007.78;;;5.64;100.00
29045;BME280;16133;49.486;12.176;2023-02-20T06:42:34;98021.66;;;5.66;100.00
29045;BME280;16133;49.486;12.176;2023-02-20T06:45:00;98041.03;;;5.65;100.00
29045;BME280;16133;49.486;12.176;2023-02-20T06:47:25;98056.63;;;5.78;100.00
29045;BME280;16133;49.486;12.176;2023-02-20T06:49:50;98053.00;;;5.79;100.00
29045;BME280;16133;49.486;12.176;2023-02-20T06:52:16;98061.34;;;5.84;100.00
29045;BME280;16133;49.486;12.176;2023-02-20T06:54:42;98069.00;;;5.87;100.00
29045;BME280;16133;49.486;12.176;2023-02-20T06:57:07;98077.72;;;5.88;100.00
29045;BME280;16133;49.486;12.176;2023-02-20T06:59:32;98073.31;;;5.88;100.00
29045;BME280;16133;49.486;12.176;2023-02-20T07:02:04;98071.75;;;5.86;100.00
29045;BME280;16133;49.486;12.176;2023-02-20T07:04:29;98061.94;;;5.88;100.00
29045;BME280;16133;49.486;12.176;2023-02-20T07:06:55;98062.66;;;5.99;100.00
29045;BME280;16133;49.486;12.176;2023-02-20T07:09:21;98071.13;;;5.93;100.00
29045;BME280;16133;49.486;12.176;2023-02-20T07:11:46;98075.53;;;5.93;100.00
29045;BME280;16133;49.486;12.176;2023-02-20T07:14:14;98069.72;;;5.99;100.00
29045;BME280;16133;49.486;12.176;2023-02-20T07:16:40;98072.94;;;6.12;100.00
29045;BME280;16133;49.486;12.176;2023-02-20T07:19:05;98088.53;;;6.24;100.00
29045;BME280;16133;49.486;12.176;2023-02-20T07:21:30;98112.00;;;6.47;100.00
29045;BME280;16133;49.486;12.176;2023-02-20T07:23:56;98121.16;;;6.43;100.00
29045;BME280;16133;49.486;12.176;2023-02-20T07:26:24;98123.25;;;6.58;100.00
29045;BME280;16133;49.486;12.176;2023-02-20T07:28:50;98125.88;;;6.68;100.00
29045;BME280;16133;49.486;12.176;2023-02-20T07:31:16;98128.53;;;6.78;100.00
29045;BME280;16133;49.486;12.176;2023-02-20T07:33:41;98123.66;;;6.73;100.00
29045;BME280;16133;49.486;12.176;2023-02-20T07:36:09;98132.13;;;6.86;100.00
29045;BME280;16133;49.486;12.176;2023-02-20T07:38:34;98142.28;;;6.81;100.00
29045;BME280;16133;49.486;12.176;2023-02-20T07:41:00;98168.09;;;6.87;100.00
29045;BME280;16133;49.486;12.176;2023-02-20T07:43:25;98171.97;;;6.83;100.00
29045;BME280;16133;49.486;12.176;2023-02-20T07:45:50;98171.84;;;6.94;100.00
29045;BME280;16133;49.486;12.176;2023-02-20T07:48:16;98158.38;;;7.07;100.00
29045;BME280;16133;49.486;12.176;2023-02-20T07:50:41;98157.28;;;7.19;100.00
29045;BME280;16133;49.486;12.176;2023-02-20T07:53:06;98143.78;;;7.22;100.00
29045;BME280;16133;49.486;12.176;2023-02-20T07:55:32;98160.88;;;7.28;100.00
29045;BME280;16133;49.486;12.176;2023-02-20T07:57:57;98165.31;;;7.27;100.00
29045;BME280;16133;49.486;12.176;2023-02-20T08:00:25;98161.13;;;7.25;100.00
29045;BME280;16133;49.486;12.176;2023-02-20T08:02:50;98157.00;;;7.32;100.00
29045;BME280;16133;49.486;12.176;2023-02-20T08:05:16;98160.84;;;7.47;100.00
29045;BME280;16133;49.486;12.176;2023-02-20T08:07:46;98153.31;;;7.52;100.00
29045;BME280;16133;49.486;12.176;2023-02-20T08:10:13;98163.22;;;7.40;100.00
29045;BME280;16133;49.486;12.176;2023-02-20T08:12:39;98175.31;;;7.43;100.00
29045;BME280;16133;49.486;12.176;2023-02-20T08:15:04;98165.75;;;7.22;100.00
29045;BME280;16133;49.486;12.176;2023-02-20T08:17:29;98169.75;;;6.98;100.00
29045;BME280;16133;49.486;12.176;2023-02-20T08:19:55;98169.91;;;6.77;100.00
29045;BME280;16133;49.486;12.176;2023-02-20T08:22:20;98173.63;;;6.65;100.00
29045;BME280;16133;49.486;12.176;2023-02-20T08:24:45;98174.19;;;6.59;100.00
29045;BME280;16133;49.486;12.176;2023-02-20T08:27:11;98160.19;;;6.78;100.00
29045;BME280;16133;49.486;12.176;2023-02-20T08:29:36;98156.44;;;6.99;100.00
29045;BME280;16133;49.486;12.176;2023-02-20T08:32:02;98158.41;;;7.16;100.00
29045;BME280;16133;49.486;12.176;2023-02-20T08:34:27;98155.78;;;7.63;100.00
29045;BME280;16133;49.486;12.176;2023-02-20T08:36:52;98155.19;;;7.88;100.00
29045;BME280;16133;49.486;12.176;2023-02-20T08:39:18;98168.97;;;8.19;100.00
29045;BME280;16133;49.486;12.176;2023-02-20T08:41:44;98173.34;;;8.28;100.00
29045;BME280;16133;49.486;12.176;2023-02-20T08:44:10;98168.91;;;8.38;100.00
29045;BME280;16133;49.486;12.176;2023-02-20T08:46:36;98156.97;;;8.25;100.00
29045;BME280;16133;49.486;12.176;2023-02-20T08:49:01;98151.72;;;8.15;100.00
29045;BME280;16133;49.486;12.176;2023-02-20T08:51:27;98172.34;;;8.11;100.00
29045;BME280;16133;49.486;12.176;2023-02-20T08:53:52;98175.41;;;8.07;100.00
29045;BME280;16133;49.486;12.176;2023-02-20T08:56:19;98171.19;;;8.24;100.00
29045;BME280;16133;49.486;12.176;2023-02-20T08:58:45;98170.38;;;8.13;100.00
29045;BME280;16133;49.486;12.176;2023-02-20T09:01:10;98181.19;;;8.30;100.00
29045;BME280;16133;49.486;12.176;2023-02-20T09:03:35;98202.84;;;8.43;100.00
29045;BME280;16133;49.486;12.176;2023-02-20T09:06:04;98200.66;;;8.29;100.00
29045;BME280;16133;49.486;12.176;2023-02-20T09:08:29;98193.44;;;8.21;100.00
29045;BME280;16133;49.486;12.176;2023-02-20T09:10:55;98193.38;;;7.94;100.00
29045;BME280;16133;49.486;12.176;2023-02-20T09:13:20;98183.88;;;7.74;100.00
29045;BME280;16133;49.486;12.176;2023-02-20T09:15:45;98192.94;;;7.52;100.00
29045;BME280;16133;49.486;12.176;2023-02-20T09:18:13;98182.56;;;7.12;100.00
29045;BME280;16133;49.486;12.176;2023-02-20T09:20:39;98179.34;;;6.99;100.00
29045;BME280;16133;49.486;12.176;2023-02-20T09:23:05;98176.44;;;7.02;100.00
29045;BME280;16133;49.486;12.176;2023-02-20T09:25:31;98158.25;;;6.89;100.00
29045;BME280;16133;49.486;12.176;2023-02-20T09:27:56;98144.22;;;6.79;100.00
29045;BME280;16133;49.486;12.176;2023-02-20T09:30:22;98168.66;;;6.81;100.00
29045;BME280;16133;49.486;12.176;2023-02-20T09:32:48;98177.25;;;6.83;100.00
29045;BME280;16133;49.486;12.176;2023-02-20T09:35:22;98153.94;;;6.88;100.00
29045;BME280;16133;49.486;12.176;2023-02-20T09:37:48;98148.38;;;6.91;100.00
29045;BME280;16133;49.486;12.176;2023-02-20T09:40:15;98142.00;;;7.03;100.00
29045;BME280;16133;49.486;12.176;2023-02-20T09:45:32;98137.13;;;7.28;100.00
29045;BME280;16133;49.486;12.176;2023-02-20T09:50:58;98135.00;;;7.97;100.00
29045;BME280;16133;49.486;12.176;2023-02-20T09:53:37;98134.31;;;8.22;100.00
29045;BME280;16133;49.486;12.176;2023-02-20T09:56:09;98139.59;;;8.49;100.00
29045;BME280;16133;49.486;12.176;2023-02-20T09:58:40;98142.13;;;8.69;98.67
29045;BME280;16133;49.486;12.176;2023-02-20T10:01:10;98144.28;;;8.55;100.00
29045;BME280;16133;49.486;12.176;2023-02-20T10:03:57;98148.06;;;8.53;97.52
29045;BME280;16133;49.486;12.176;2023-02-20T10:06:30;98141.03;;;8.44;96.23
29045;BME280;16133;49.486;12.176;2023-02-20T10:08:57;98140.59;;;8.48;96.70
29045;BME280;16133;49.486;12.176;2023-02-20T10:14:24;98127.53;;;8.47;93.68
29045;BME280;16133;49.486;12.176;2023-02-20T10:23:04;98126.53;;;8.48;94.42
29045;BME280;16133;49.486;12.176;2023-02-20T10:25:37;98120.66;;;8.54;95.76
29045;BME280;16133;49.486;12.176;2023-02-20T10:28:08;98115.44;;;8.62;91.81
29045;BME280;16133;49.486;12.176;2023-02-20T10:35:52;98119.53;;;8.92;90.11
29045;BME280;16133;49.486;12.176;2023-02-20T10:38:23;98121.09;;;9.20;88.06
29045;BME280;16133;49.486;12.176;2023-02-20T10:41:08;98103.25;;;9.48;85.75
29045;BME280;16133;49.486;12.176;2023-02-20T10:46:48;98108.00;;;10.30;79.87
29045;BME280;16133;49.486;12.176;2023-02-20T10:49:43;98098.34;;;10.79;76.22
29045;BME280;16133;49.486;12.176;2023-02-20T10:52:09;98079.44;;;11.06;75.79
29045;BME280;16133;49.486;12.176;2023-02-20T11:00:06;98054.72;;;11.93;71.80
29045;BME280;16133;49.486;12.176;2023-02-20T11:02:39;98057.31;;;12.09;68.07
29045;BME280;16133;49.486;12.176;2023-02-20T11:05:18;98049.59;;;12.22;66.62
29045;BME280;16133;49.486;12.176;2023-02-20T11:07:44;98049.16;;;12.11;67.80
29045;BME280;16133;49.486;12.176;2023-02-20T11:10:09;98043.50;;;12.14;70.14
29045;BME280;16133;49.486;12.176;2023-02-20T11:12:49;98039.03;;;12.06;70.25
29045;BME280;16133;49.486;12.176;2023-02-20T11:15:19;98035.81;;;11.88;69.54
29045;BME280;16133;49.486;12.176;2023-02-20T11:17:48;98035.53;;;12.06;70.94
29045;BME280;16133;49.486;12.176;2023-02-20T11:22:56;98021.22;;;12.15;68.31
29045;BME280;16133;49.486;12.176;2023-02-20T11:27:57;98025.28;;;11.94;69.01
29045;BME280;16133;49.486;12.176;2023-02-20T11:30:28;98018.22;;;11.71;69.80
29045;BME280;16133;49.486;12.176;2023-02-20T11:33:12;98012.41;;;11.75;71.08
29045;BME280;16133;49.486;12.176;2023-02-20T11:35:44;98006.09;;;11.68;71.77
29045;BME280;16133;49.486;12.176;2023-02-20T11:40:44;98004.50;;;11.43;73.43
29045;BME280;16133;49.486;12.176;2023-02-20T11:45:45;97992.88;;;11.44;74.08
29045;BME280;16133;49.486;12.176;2023-02-20T11:48:19;97995.38;;;11.45;74.30
29045;BME280;16133;49.486;12.176;2023-02-20T11:50:50;97983.59;;;11.32;74.66
29045;BME280;16133;49.486;12.176;2023-02-20T11:55:47;97972.69;;;11.27;75.09
29045;BME280;16133;49.486;12.176;2023-02-20T11:58:21;97965.81;;;11.40;72.22
29045;BME280;16133;49.486;12.176;2023-02-20T12:00:49;97968.72;;;11.23;74.40
29045;BME280;16133;49.486;12.176;2023-02-20T12:03:30;97971.63;;;11.36;70.80
29045;BME280;16133;49.486;12.176;2023-02-20T12:05:58;97970.81;;;11.27;73.28
29045;BME280;16133;49.486;12.176;2023-02-20T12:08:53;97971.00;;;11.34;71.82
29045;BME280;16133;49.486;12.176;2023-02-20T12:11:23;97974.34;;;11.20;73.57
29045;BME280;16133;49.486;12.176;2023-02-20T12:13:52;97971.53;;;11.21;74.41
29045;BME280;16133;49.486;12.176;2023-02-20T12:24:26;97951.13;;;11.14;73.94
29045;BME280;16133;49.486;12.176;2023-02-20T12:26:56;97947.00;;;11.11;73.37
29045;BME280;16133;49.486;12.176;2023-02-20T12:48:52;97934.59;;;10.79;75.43
29045;BME280;16133;49.486;12.176;2023-02-20T12:52:14;97922.16;;;10.72;74.45
29045;BME280;16133;49.486;12.176;2023-02-20T12:58:03;97918.19;;;10.60;74.40
29045;BME280;16133;49.486;12.176;2023-02-20T13:00:52;97911.56;;;10.64;75.78
29045;BME280;16133;49.486;12.176;2023-02-20T13:03:23;97906.88;;;10.66;74.55
29045;BME280;16133;49.486;12.176;2023-02-20T13:05:50;97905.25;;;10.73;75.97
29045;BME280;16133;49.486;12.176;2023-02-20T13:08:22;97904.41;;;10.64;75.73
29045;BME280;16133;49.486;12.176;2023-02-20T13:11:03;97898.13;;;10.65;75.56
29045;BME280;16133;49.486;12.176;2023-02-20T13:14:39;97897.28;;;10.57;75.55
29045;BME280;16133;49.486;12.176;2023-02-20T13:17:32;97878.03;;;10.54;75.55
29045;BME280;16133;49.486;12.176;2023-02-20T13:19:55;97882.56;;;10.46;77.88
29045;BME280;16133;49.486;12.176;2023-02-20T13:22:22;97881.72;;;10.37;78.08
29045;BME280;16133;49.486;12.176;2023-02-20T13:24:47;97874.41;;;10.39;76.76
29045;BME280;16133;49.486;12.176;2023-02-20T13:27:31;97873.28;;;10.50;75.02
29045;BME280;16133;49.486;12.176;2023-02-20T13:29:59;97868.28;;;10.39;76.63
29045;BME280;16133;49.486;12.176;2023-02-20T13:32:31;97869.28;;;10.22;76.29
29045;BME280;16133;49.486;12.176;2023-02-20T13:35:32;97857.34;;;10.18;76.73
29045;BME280;16133;49.486;12.176;2023-02-20T13:38:12;97867.28;;;9.99;78.37
29045;BME280;16133;49.486;12.176;2023-02-20T13:40:40;97856.66;;;9.99;78.33
29045;BME280;16133;49.486;12.176;2023-02-20T13:43:18;97859.66;;;9.88;79.37
29045;BME280;16133;49.486;12.176;2023-02-20T13:45:44;97855.47;;;9.86;78.54
29045;BME280;16133;49.486;12.176;2023-02-20T13:50:43;97846.19;;;9.82;80.95
29045;BME280;16133;49.486;12.176;2023-02-20T13:53:08;97845.88;;;9.77;81.38
29045;BME280;16133;49.486;12.176;2023-02-20T13:55:33;97838.59;;;9.79;80.00
29045;BME280;16133;49.486;12.176;2023-02-20T13:58:25;97837.78;;;9.94;80.29
29045;BME280;16133;49.486;12.176;2023-02-20T14:00:52;97835.97;;;10.03;78.69
29045;BME280;16133;49.486;12.176;2023-02-20T14:05:44;97813.25;;;10.25;75.09
29045;BME280;16133;49.486;12.176;2023-02-20T14:08:17;97808.78;;;10.41;73.11
29045;BME280;16133;49.486;12.176;2023-02-20T14:10:43;97769.00;;;10.25;74.33
29045;BME280;16133;49.486;12.176;2023-02-20T14:13:19;97802.13;;;10.53;73.29
29045;BME280;16133;49.486;12.176;2023-02-20T14:18:21;97802.59;;;10.57;75.02
29045;BME280;16133;49.486;12.176;2023-02-20T14:20:50;97805.19;;;10.73;71.57
29045;BME280;16133;49.486;12.176;2023-02-20T14:25:59;97789.38;;;10.96;68.61
29045;BME280;16133;49.486;12.176;2023-02-20T14:28:26;97786.22;;;10.92;69.21
29045;BME280;16133;49.486;12.176;2023-02-20T14:31:06;97793.03;;;10.95;69.62
29045;BME280;16133;49.486;12.176;2023-02-20T14:33:32;97786.84;;;11.02;68.45
29045;BME280;16133;49.486;12.176;2023-02-20T14:36:18;97783.19;;;11.03;68.61
29045;BME280;16133;49.486;12.176;2023-02-20T14:41:25;97780.41;;;10.89;70.73
29045;BME280;16133;49.486;12.176;2023-02-20T14:43:59;97777.91;;;10.95;70.34
29045;BME280;16133;49.486;12.176;2023-02-20T14:46:28;97776.63;;;10.83;69.79
29045;BME280;16133;49.486;12.176;2023-02-20T14:49:13;97770.03;;;10.79;71.00
29045;BME280;16133;49.486;12.176;2023-02-20T14:51:40;97779.97;;;10.77;70.47
29045;BME280;16133;49.486;12.176;2023-02-20T14:56:44;97782.09;;;10.82;69.04
29045;BME280;16133;49.486;12.176;2023-02-20T15:01:48;97775.69;;;10.68;68.83
29045;BME280;16133;49.486;12.176;2023-02-20T15:04:17;97764.13;;;10.61;68.89
29045;BME280;16133;49.486;12.176;2023-02-20T15:06:46;97761.50;;;10.53;69.20
29045;BME280;16133;49.486;12.176;2023-02-20T15:09:12;97757.88;;;10.46;70.36